createdAt,value
2019-04-05T00:02:12.405Z,947.3
2019-04-05T00:05:18.367Z,947.3
2019-04-05T00:08:24.242Z,947.4
2019-04-05T00:11:30.182Z,947.3
2019-04-05T00:14:36.062Z,947.3
2019-04-05T00:17:42.004Z,947.2
2019-04-05T00:20:48.064Z,947.2
2019-04-05T00:23:53.952Z,947.3
2019-04-05T00:27:00.003Z,947.3
2019-04-05T00:30:05.970Z,947.3
2019-04-05T00:33:12.017Z,947.3
2019-04-05T00:36:17.967Z,947.2
2019-04-05T00:39:23.923Z,947.2
2019-04-05T00:42:29.804Z,947.2
2019-04-05T00:45:35.844Z,947.1
2019-04-05T00:48:41.724Z,947.2
2019-04-05T00:51:47.761Z,947.2
2019-04-05T00:54:53.642Z,947.1
2019-04-05T00:57:59.685Z,947.1
2019-04-05T01:01:05.628Z,947.1
2019-04-05T01:04:11.602Z,947.1
2019-04-05T01:07:17.562Z,947
2019-04-05T01:10:23.629Z,947.1
2019-04-05T01:13:29.513Z,947.1
2019-04-05T01:16:35.445Z,947
2019-04-05T01:19:41.404Z,947
2019-04-05T01:22:47.490Z,947
2019-04-05T01:25:53.344Z,947
2019-04-05T01:28:59.382Z,947
2019-04-05T01:32:05.269Z,947
2019-04-05T01:35:11.202Z,947
2019-04-05T01:38:17.161Z,947
2019-04-05T01:41:23.050Z,946.9
2019-04-05T01:44:28.977Z,946.9
2019-04-05T01:47:35.035Z,946.9
2019-04-05T01:50:41.104Z,946.9
2019-04-05T01:53:46.995Z,946.9
2019-04-05T01:56:52.917Z,946.9
2019-04-05T01:59:58.886Z,946.8
2019-04-05T02:03:04.786Z,946.8
2019-04-05T02:06:10.834Z,946.9
2019-04-05T02:09:16.801Z,946.7
2019-04-05T02:12:22.922Z,946.8
2019-04-05T02:15:28.879Z,946.9
2019-04-05T02:18:34.773Z,946.8
2019-04-05T02:21:43.774Z,946.9
2019-04-05T02:24:49.729Z,946.9
2019-04-05T02:27:55.609Z,946.9
2019-04-05T02:31:01.596Z,946.9
2019-04-05T02:34:07.572Z,946.9
2019-04-05T02:37:13.676Z,946.9
2019-04-05T02:40:19.744Z,946.9
2019-04-05T02:43:25.805Z,946.9
2019-04-05T02:46:31.863Z,947
2019-04-05T02:49:37.933Z,947
2019-04-05T02:52:47.005Z,947
2019-04-05T02:55:53.015Z,947
2019-04-05T02:58:58.973Z,947
2019-04-05T03:02:04.910Z,947.1
2019-04-05T03:05:10.995Z,947
2019-04-05T03:08:16.903Z,947
2019-04-05T03:11:22.913Z,947
2019-04-05T03:14:28.904Z,947.1
2019-04-05T03:17:34.844Z,947
2019-04-05T03:20:40.801Z,947.1
2019-04-05T03:23:46.760Z,947
2019-04-05T03:26:52.877Z,946.9
2019-04-05T03:29:58.987Z,946.9
2019-04-05T03:33:05.308Z,946.9
2019-04-05T03:36:11.312Z,946.9
2019-04-05T03:39:17.271Z,946.9
2019-04-05T03:42:23.237Z,946.9
2019-04-05T03:45:29.194Z,946.9
2019-04-05T03:48:35.094Z,946.9
2019-04-05T03:51:41.167Z,947
2019-04-05T03:54:47.101Z,947
2019-04-05T03:57:53.187Z,947
2019-04-05T04:01:02.088Z,947
2019-04-05T04:04:07.953Z,947
2019-04-05T04:07:14.214Z,947.1
2019-04-05T04:10:20.307Z,947
2019-04-05T04:13:30.290Z,947.1
2019-04-05T04:16:36.203Z,947.1
2019-04-05T04:19:42.228Z,947.1
2019-04-05T04:22:49.827Z,947.2
2019-04-05T04:25:55.883Z,947.2
2019-04-05T04:29:01.768Z,947.1
2019-04-05T04:32:07.810Z,947.1
2019-04-05T04:35:13.787Z,947.2
2019-04-05T04:38:19.650Z,947.1
2019-04-05T04:41:25.784Z,947.3
2019-04-05T04:44:35.428Z,947.2
2019-04-05T04:47:41.434Z,947.2
2019-04-05T04:50:47.509Z,947.2
2019-04-05T04:53:53.387Z,947.2
2019-04-05T04:56:59.302Z,947.2
2019-04-05T05:00:05.235Z,947.2
2019-04-05T05:03:11.215Z,947.2
2019-04-05T05:06:17.181Z,947.2
2019-04-05T05:09:23.037Z,947.3
2019-04-05T05:12:28.986Z,947.3
2019-04-05T05:15:34.966Z,947.3
2019-04-05T05:18:40.994Z,947.4
2019-04-05T05:21:47.001Z,947.4
2019-04-05T05:24:52.959Z,947.3
2019-04-05T05:27:58.969Z,947.3
2019-04-05T05:31:04.983Z,947.3
2019-04-05T05:34:11.013Z,947.2
2019-04-05T05:37:17.054Z,947.2
2019-04-05T05:40:36.283Z,947.3
2019-04-05T05:43:42.216Z,947.2
2019-04-05T05:46:51.218Z,947.2
2019-04-05T05:49:57.096Z,947.2
2019-04-05T05:53:03.398Z,947.1
2019-04-05T05:56:11.963Z,947.2
2019-04-05T05:59:17.899Z,947.2
2019-04-05T06:02:23.882Z,947.2
2019-04-05T06:05:30.069Z,947.2
2019-04-05T06:08:36.018Z,947.2
2019-04-05T06:11:41.968Z,947.2
2019-04-05T06:14:47.858Z,947.1
2019-04-05T06:18:05.917Z,947.1
2019-04-05T06:21:16.413Z,947.2
2019-04-05T06:24:22.401Z,947.2
2019-04-05T06:27:28.361Z,947.2
2019-04-05T06:30:37.602Z,947.1
2019-04-05T06:33:43.545Z,947.1
2019-04-05T06:36:52.383Z,947.1
2019-04-05T06:40:01.212Z,947
2019-04-05T06:43:08.247Z,947.1
2019-04-05T06:46:15.185Z,947.1
2019-04-05T06:49:21.243Z,947.1
2019-04-05T06:52:27.347Z,947.1
2019-04-05T06:55:33.427Z,947
2019-04-05T06:58:39.431Z,947.1
2019-04-05T07:01:48.736Z,947.1
2019-04-05T07:04:54.832Z,947.1
2019-04-05T07:08:00.993Z,947.1
2019-04-05T07:11:07.045Z,947.1
2019-04-05T07:14:13.025Z,947
2019-04-05T07:17:19.128Z,947.1
2019-04-05T07:20:25.549Z,947
2019-04-05T07:23:31.722Z,947.1
2019-04-05T07:26:37.675Z,947.1
2019-04-05T07:29:43.638Z,947.1
2019-04-05T07:32:49.596Z,947.1
2019-04-05T07:35:55.679Z,947.1
2019-04-05T07:39:01.717Z,947.1
2019-04-05T07:42:07.599Z,947.2
2019-04-05T07:45:13.749Z,947.2
2019-04-05T07:48:19.674Z,947.1
2019-04-05T07:51:25.680Z,947.1
2019-04-05T07:54:31.621Z,947.2
2019-04-05T07:57:37.686Z,947.1
2019-04-05T08:00:43.858Z,947.1
2019-04-05T08:03:49.758Z,947.1
2019-04-05T08:06:55.870Z,947
2019-04-05T08:10:04.254Z,947.1
2019-04-05T08:13:10.299Z,947
2019-04-05T08:16:16.202Z,947
2019-04-05T08:19:22.163Z,947
2019-04-05T08:22:28.273Z,947
2019-04-05T08:25:37.156Z,946.9
2019-04-05T08:28:45.989Z,946.9
2019-04-05T08:31:51.860Z,946.8
2019-04-05T08:34:57.803Z,946.8
2019-04-05T08:38:03.860Z,946.8
2019-04-05T08:41:09.973Z,946.8
2019-04-05T08:44:15.993Z,946.7
2019-04-05T08:47:24.557Z,946.7
2019-04-05T08:50:30.568Z,946.7
2019-04-05T08:53:36.490Z,946.7
2019-04-05T08:56:42.770Z,946.6
2019-04-05T08:59:48.754Z,946.6
2019-04-05T09:02:57.819Z,946.6
2019-04-05T09:06:04.060Z,946.6
2019-04-05T09:09:10.125Z,946.6
2019-04-05T09:12:16.149Z,946.6
2019-04-05T09:15:22.145Z,946.5
2019-04-05T09:18:28.062Z,946.5
2019-04-05T09:21:34.068Z,946.5
2019-04-05T09:24:45.142Z,946.4
2019-04-05T09:27:51.199Z,946.5
2019-04-05T09:30:57.158Z,946.6
2019-04-05T09:34:03.188Z,946.6
2019-04-05T09:37:09.340Z,946.6
2019-04-05T09:40:15.559Z,946.6
2019-04-05T09:43:25.743Z,946.5
2019-04-05T09:46:31.602Z,946.6
2019-04-05T09:49:55.762Z,946.5
2019-04-05T09:53:01.885Z,946.5
2019-04-05T09:56:07.884Z,946.5
2019-04-05T09:59:13.916Z,946.5
2019-04-05T10:02:20.034Z,946.4
2019-04-05T10:05:25.991Z,946.5
2019-04-05T10:08:31.958Z,946.4
2019-04-05T10:11:37.997Z,946.5
2019-04-05T10:14:44.208Z,946.4
2019-04-05T10:17:50.442Z,946.4
2019-04-05T10:20:56.605Z,946.4
2019-04-05T10:24:02.565Z,946.5
2019-04-05T10:27:08.519Z,946.4
2019-04-05T10:30:15.493Z,946.4
2019-04-05T10:33:21.518Z,946.5
2019-04-05T10:36:28.422Z,946.4
2019-04-05T10:39:34.420Z,946.5
2019-04-05T10:42:40.466Z,946.3
2019-04-05T10:45:46.421Z,946.3
2019-04-05T10:48:52.301Z,946.4
2019-04-05T10:51:58.351Z,946.4
2019-04-05T10:55:04.291Z,946.3
2019-04-05T10:58:10.600Z,946.3
2019-04-05T11:01:16.627Z,946.4
2019-04-05T11:04:22.733Z,946.4
2019-04-05T11:07:28.958Z,946.3
2019-04-05T11:10:37.917Z,946.3
2019-04-05T11:13:44.207Z,946.3
2019-04-05T11:17:00.106Z,946.2
2019-04-05T11:20:23.069Z,946.2
2019-04-05T11:23:29.165Z,946.2
2019-04-05T11:26:35.222Z,946.1
2019-04-05T11:29:41.121Z,946.1
2019-04-05T11:32:48.156Z,946.1
2019-04-05T11:35:54.392Z,946
2019-04-05T11:39:06.543Z,946
2019-04-05T11:42:12.522Z,946
2019-04-05T11:45:18.518Z,946
2019-04-05T11:48:24.626Z,946
2019-04-05T11:51:34.772Z,945.9
2019-04-05T11:54:40.757Z,945.9
2019-04-05T11:57:50.799Z,945.9
2019-04-05T12:00:59.778Z,945.9
2019-04-05T12:04:05.793Z,945.9
2019-04-05T12:07:11.864Z,945.8
2019-04-05T12:10:20.584Z,945.7
2019-04-05T12:13:26.600Z,945.7
2019-04-05T12:16:35.868Z,945.7
2019-04-05T12:19:42.041Z,945.6
2019-04-05T12:22:48.160Z,945.7
2019-04-05T12:25:57.237Z,945.6
2019-04-05T12:29:08.031Z,945.5
2019-04-05T12:32:32.474Z,945.5
2019-04-05T12:35:57.150Z,945.5
2019-04-05T12:39:09.159Z,945.4
2019-04-05T12:42:15.037Z,945.3
2019-04-05T12:45:21.127Z,945.3
2019-04-05T12:48:27.083Z,945.2
2019-04-05T12:51:33.040Z,945.1
2019-04-05T12:54:39.002Z,945.1
2019-04-05T12:57:44.966Z,945
2019-04-05T13:00:57.652Z,945
2019-04-05T13:04:03.628Z,945
2019-04-05T13:07:09.505Z,944.9
2019-04-05T13:10:15.516Z,944.9
2019-04-05T13:13:21.526Z,944.8
2019-04-05T13:16:32.206Z,944.8
2019-04-05T13:19:38.068Z,944.8
2019-04-05T13:22:44.029Z,944.7
2019-04-05T13:25:50.075Z,944.7
2019-04-05T13:28:55.964Z,944.7
2019-04-05T13:32:02.102Z,944.7
2019-04-05T13:35:08.078Z,944.7
2019-04-05T13:38:14.029Z,944.7
2019-04-05T13:41:20.380Z,944.6
2019-04-05T13:44:26.400Z,944.6
2019-04-05T13:47:39.692Z,944.5
2019-04-05T13:50:45.732Z,944.5
2019-04-05T13:53:51.797Z,944.5
2019-04-05T13:56:57.693Z,944.5
2019-04-05T14:00:03.865Z,944.5
2019-04-05T14:03:09.827Z,944.4
2019-04-05T14:06:15.842Z,944.4
2019-04-05T14:09:21.904Z,944.4
2019-04-05T14:12:27.889Z,944.4
2019-04-05T14:15:36.596Z,944.3
2019-04-05T14:18:50.639Z,944.3
2019-04-05T14:22:09.865Z,944.4
2019-04-05T14:25:15.771Z,944.4
2019-04-05T14:28:21.727Z,944.4
2019-04-05T14:31:29.514Z,944.3
2019-04-05T14:34:37.637Z,944.3
2019-04-05T14:37:43.599Z,944.3
2019-04-05T14:40:50.074Z,944.2
2019-04-05T14:43:56.237Z,944.2
2019-04-05T14:47:02.276Z,944.2
2019-04-05T14:50:08.525Z,944.1
2019-04-05T14:53:17.628Z,944.1
2019-04-05T14:56:23.618Z,944.1
2019-04-05T14:59:34.123Z,944.1
2019-04-05T15:02:40.056Z,944.2
2019-04-05T15:05:49.278Z,944.1
2019-04-05T15:08:55.297Z,944.1
2019-04-05T15:12:04.311Z,944
2019-04-05T15:15:10.758Z,944.1
2019-04-05T15:18:19.366Z,944
2019-04-05T15:21:30.077Z,944
2019-04-05T15:24:44.520Z,944.1
2019-04-05T15:27:56.639Z,944
2019-04-05T15:31:02.600Z,944
2019-04-05T15:34:08.476Z,943.9
2019-04-05T15:37:17.282Z,943.9
2019-04-05T15:40:23.251Z,944
2019-04-05T15:43:33.504Z,943.9
2019-04-05T15:46:39.386Z,943.9
2019-04-05T15:49:45.322Z,944
2019-04-05T15:52:55.770Z,943.9
2019-04-05T15:56:06.696Z,943.9
2019-04-05T15:59:12.722Z,943.9
2019-04-05T16:02:18.683Z,943.9
2019-04-05T16:05:24.754Z,944
2019-04-05T16:08:30.823Z,943.9
2019-04-05T16:11:36.868Z,943.9
2019-04-05T16:14:42.838Z,944
2019-04-05T16:17:48.892Z,944
2019-04-05T16:20:54.853Z,944
2019-04-05T16:24:00.731Z,943.9
2019-04-05T16:27:06.670Z,943.9
2019-04-05T16:30:12.584Z,944
2019-04-05T16:33:18.596Z,944
2019-04-05T16:36:24.599Z,944
2019-04-05T16:39:33.892Z,944
2019-04-05T16:42:39.896Z,944.1
2019-04-05T16:45:45.910Z,944.1
2019-04-05T16:48:51.787Z,944.1
2019-04-05T16:51:57.729Z,944.1
2019-04-05T16:55:03.609Z,944.1
2019-04-05T16:58:09.545Z,944.1
2019-04-05T17:01:28.455Z,944.1
2019-04-05T17:04:34.468Z,944.1
2019-04-05T17:07:40.428Z,944.1
2019-04-05T17:10:46.491Z,944.2
2019-04-05T17:13:52.373Z,944.2
2019-04-05T17:17:03.733Z,944.1
2019-04-05T17:20:09.802Z,944.1
2019-04-05T17:23:15.680Z,944.1
2019-04-05T17:26:21.675Z,944.2
2019-04-05T17:29:27.594Z,944.2
2019-04-05T17:32:33.741Z,944.2
2019-04-05T17:35:39.699Z,944.2
2019-04-05T17:38:45.581Z,944.2
2019-04-05T17:41:51.516Z,944.3
2019-04-05T17:44:57.421Z,944.3
2019-04-05T17:48:03.438Z,944.3
2019-04-05T17:51:09.396Z,944.3
2019-04-05T17:54:15.459Z,944.3
2019-04-05T17:57:21.452Z,944.3
2019-04-05T18:00:27.397Z,944.4
2019-04-05T18:03:33.342Z,944.3
2019-04-05T18:06:39.319Z,944.4
2019-04-05T18:09:45.360Z,944.3
2019-04-05T18:12:51.330Z,944.4
2019-04-05T18:15:57.382Z,944.4
2019-04-05T18:19:03.394Z,944.3
2019-04-05T18:22:09.383Z,944.3
2019-04-05T18:25:15.790Z,944.3
2019-04-05T18:28:21.654Z,944.4
2019-04-05T18:31:27.597Z,944.4
2019-04-05T18:34:33.490Z,944.3
2019-04-05T18:37:39.411Z,944.2
2019-04-05T18:40:45.473Z,944.3
2019-04-05T18:43:51.433Z,944.1
2019-04-05T18:47:00.311Z,944.2
2019-04-05T18:50:06.323Z,944.1
2019-04-05T18:53:12.282Z,944.1
2019-04-05T18:56:18.242Z,944.1
2019-04-05T18:59:24.206Z,944
2019-04-05T19:02:30.275Z,944
2019-04-05T19:05:36.225Z,944
2019-04-05T19:08:42.189Z,944.1
2019-04-05T19:11:48.149Z,944
2019-04-05T19:14:54.026Z,944
2019-04-05T19:18:03.037Z,944
2019-04-05T19:21:09.103Z,943.9
2019-04-05T19:24:14.975Z,943.9
2019-04-05T19:27:21.018Z,943.9
2019-04-05T19:51:32.757Z,944
2019-04-05T19:54:38.714Z,944
2019-04-05T19:57:44.780Z,944.1
2019-04-05T20:00:50.867Z,944.2
2019-04-05T20:03:56.761Z,944.2
2019-04-05T20:07:02.694Z,944.3
2019-04-05T20:10:08.617Z,944.4
2019-04-05T20:13:14.679Z,944.3
2019-04-05T20:16:20.670Z,944.3
2019-04-05T20:19:26.700Z,944.3
2019-04-05T20:22:32.588Z,944.4
2019-04-05T20:25:38.630Z,944.3
2019-04-05T20:28:44.588Z,944.4
2019-04-05T20:31:50.544Z,944.4
2019-04-05T20:34:56.608Z,944.4
2019-04-05T20:38:02.512Z,944.5
2019-04-05T20:41:08.529Z,944.5
2019-04-05T20:44:14.485Z,944.5
2019-04-05T20:47:20.453Z,944.6
2019-04-05T20:50:26.411Z,944.6
2019-04-05T20:53:32.403Z,944.6
2019-04-05T20:56:38.324Z,944.7
2019-04-05T20:59:44.204Z,944.6
2019-04-05T21:02:50.314Z,944.6
2019-04-05T21:05:56.328Z,944.6
2019-04-05T21:09:02.368Z,944.6
2019-04-05T21:12:08.249Z,944.6
2019-04-05T21:15:14.207Z,944.6
2019-04-05T21:18:20.066Z,944.7
2019-04-05T21:21:26.124Z,944.7
2019-04-05T21:24:37.290Z,944.7
2019-04-05T21:27:43.167Z,944.7
2019-04-05T21:30:49.208Z,944.7
2019-04-05T21:33:55.170Z,944.7
2019-04-05T21:37:01.049Z,944.8
2019-04-05T21:40:07.538Z,944.8
2019-04-05T21:43:15.046Z,944.8
2019-04-05T21:46:22.643Z,944.8
2019-04-05T21:49:30.240Z,944.8
2019-04-05T21:52:38.045Z,944.8
2019-04-05T21:55:45.660Z,944.8
2019-04-05T21:58:53.241Z,944.8
2019-04-05T22:02:01.075Z,944.7
2019-04-05T22:05:08.642Z,944.8
2019-04-05T22:08:16.127Z,944.8
2019-04-05T22:11:23.735Z,944.9
2019-04-05T22:14:34.093Z,944.9
2019-04-05T22:17:41.599Z,945
2019-04-05T22:20:49.196Z,944.9
2019-04-05T22:23:56.903Z,945
2019-04-05T22:27:04.289Z,945
2019-04-05T22:30:11.786Z,945
2019-04-05T22:33:19.279Z,945.1
2019-04-05T22:36:29.821Z,945
2019-04-05T22:39:36.782Z,945.1
2019-04-05T22:42:42.695Z,945.1
2019-04-05T22:45:48.708Z,945.1
2019-04-05T22:48:57.144Z,945.2
2019-04-05T22:52:03.115Z,945.1
2019-04-05T22:55:12.778Z,945
2019-04-05T22:58:18.797Z,945
2019-04-05T23:01:24.748Z,945.1
2019-04-05T23:04:30.810Z,945
2019-04-05T23:07:36.773Z,945
2019-04-05T23:10:42.898Z,945.1
2019-04-05T23:13:48.895Z,945
2019-04-05T23:16:54.774Z,945
2019-04-05T23:20:00.817Z,945.1
2019-04-05T23:23:06.778Z,945
2019-04-05T23:26:12.745Z,945.1
2019-04-05T23:29:18.753Z,945.1
2019-04-05T23:32:24.617Z,945.1
2019-04-05T23:35:30.771Z,945.1
2019-04-05T23:38:36.784Z,945.1
2019-04-05T23:41:42.860Z,945.1
2019-04-05T23:44:48.810Z,945.1
2019-04-05T23:47:54.709Z,945
2019-04-05T23:51:00.680Z,945
2019-04-05T23:54:09.319Z,945
2019-04-05T23:57:15.317Z,945.1
